KEUG

Mahlon Sweet Field Airport

Eugene, Oregon, USA
METAR KEUG 230054Z 03008KT 10SM FEW060 26/16 A2977 RMK AO2 SLP079 T02610156
Observed Flight Rules
May-23 @ 00:54 UTC (31 minutes ago) Visual Flight Rules
Wind Visibility Clouds
30° at 8 knots 10 miles
  • Few at 6,000' AGL
Temperatures Readings
Current 26°C / 79°F
Dewpoint 16°C / 61°F
Humidity 54%
Altimeter 29.77" Hg
Pressure 1007.9 hPa
Elevation 114
METAR KEUG 230054Z 03008KT 10SM FEW060 26/16 A2977 RMK AO2 SLP079 T02610156
Observed Flight Rules
May-23 @ 00:54 UTC
(31 minutes ago)
VFR
Wind Visibility
30° at 8 knots 10 miles
Clouds
  • Few at 6,000' AGL
Temperature Dewpoint
26°C / 79°F 16°C / 61°F
Humidity Altimeter Pressure
54% 29.77" Hg 1007.9 hPa